sensor_id;sensor_type;location;lat;lon;timestamp;P1;durP1;ratioP1;P2;durP2;ratioP2
13764;SDS011;6953;48.810;9.204;2023-03-01T00:00:49;0.90;;;0.90;;
13764;SDS011;6953;48.810;9.204;2023-03-01T00:03:15;0.90;;;0.90;;
13764;SDS011;6953;48.810;9.204;2023-03-01T00:05:44;0.90;;;0.90;;
13764;SDS011;6953;48.810;9.204;2023-03-01T00:08:12;0.90;;;0.90;;
13764;SDS011;6953;48.810;9.204;2023-03-01T00:10:38;0.87;;;0.87;;
13764;SDS011;6953;48.810;9.204;2023-03-01T00:13:03;0.90;;;0.90;;
13764;SDS011;6953;48.810;9.204;2023-03-01T00:15:30;0.80;;;0.80;;
13764;SDS011;6953;48.810;9.204;2023-03-01T00:17:56;0.90;;;0.90;;
13764;SDS011;6953;48.810;9.204;2023-03-01T00:20:22;0.80;;;0.80;;
13764;SDS011;6953;48.810;9.204;2023-03-01T00:22:47;0.90;;;0.90;;
13764;SDS011;6953;48.810;9.204;2023-03-01T00:25:13;0.90;;;0.90;;
13764;SDS011;6953;48.810;9.204;2023-03-01T00:27:38;0.70;;;0.70;;
13764;SDS011;6953;48.810;9.204;2023-03-01T00:30:04;0.70;;;0.70;;
13764;SDS011;6953;48.810;9.204;2023-03-01T00:32:30;0.80;;;0.80;;
13764;SDS011;6953;48.810;9.204;2023-03-01T00:34:55;0.80;;;0.80;;
13764;SDS011;6953;48.810;9.204;2023-03-01T00:37:21;0.93;;;0.93;;
13764;SDS011;6953;48.810;9.204;2023-03-01T00:39:47;0.90;;;0.90;;
13764;SDS011;6953;48.810;9.204;2023-03-01T00:42:13;0.80;;;0.80;;
13764;SDS011;6953;48.810;9.204;2023-03-01T00:44:38;0.90;;;0.90;;
13764;SDS011;6953;48.810;9.204;2023-03-01T00:47:04;0.80;;;0.80;;
13764;SDS011;6953;48.810;9.204;2023-03-01T00:49:29;1.20;;;1.20;;
13764;SDS011;6953;48.810;9.204;2023-03-01T00:51:54;1.20;;;1.20;;
13764;SDS011;6953;48.810;9.204;2023-03-01T00:54:20;1.20;;;1.20;;
13764;SDS011;6953;48.810;9.204;2023-03-01T00:56:45;1.20;;;1.20;;
13764;SDS011;6953;48.810;9.204;2023-03-01T00:59:11;0.80;;;0.80;;
13764;SDS011;6953;48.810;9.204;2023-03-01T01:01:36;0.87;;;0.87;;
13764;SDS011;6953;48.810;9.204;2023-03-01T01:04:03;0.90;;;0.90;;
13764;SDS011;6953;48.810;9.204;2023-03-01T01:06:31;0.83;;;0.83;;
13764;SDS011;6953;48.810;9.204;2023-03-01T01:08:59;0.80;;;0.80;;
13764;SDS011;6953;48.810;9.204;2023-03-01T01:11:25;0.93;;;0.93;;
13764;SDS011;6953;48.810;9.204;2023-03-01T01:13:52;1.33;;;1.33;;
13764;SDS011;6953;48.810;9.204;2023-03-01T01:16:18;1.23;;;1.23;;
13764;SDS011;6953;48.810;9.204;2023-03-01T01:18:44;1.10;;;1.10;;
13764;SDS011;6953;48.810;9.204;2023-03-01T01:21:11;1.10;;;1.10;;
13764;SDS011;6953;48.810;9.204;2023-03-01T01:23:39;1.07;;;1.07;;
13764;SDS011;6953;48.810;9.204;2023-03-01T01:26:28;1.40;;;1.40;;
13764;SDS011;6953;48.810;9.204;2023-03-01T01:28:55;1.30;;;1.30;;
13764;SDS011;6953;48.810;9.204;2023-03-01T01:31:21;1.30;;;1.30;;
13764;SDS011;6953;48.810;9.204;2023-03-01T01:33:51;1.13;;;1.13;;
13764;SDS011;6953;48.810;9.204;2023-03-01T01:36:17;1.27;;;1.27;;
13764;SDS011;6953;48.810;9.204;2023-03-01T01:38:43;1.30;;;1.30;;
13764;SDS011;6953;48.810;9.204;2023-03-01T01:41:08;1.00;;;1.00;;
13764;SDS011;6953;48.810;9.204;2023-03-01T01:43:40;1.23;;;1.23;;
13764;SDS011;6953;48.810;9.204;2023-03-01T01:46:15;1.40;;;1.40;;
13764;SDS011;6953;48.810;9.204;2023-03-01T01:48:48;1.40;;;1.40;;
13764;SDS011;6953;48.810;9.204;2023-03-01T01:51:20;1.10;;;1.10;;
13764;SDS011;6953;48.810;9.204;2023-03-01T01:53:52;1.10;;;1.10;;
13764;SDS011;6953;48.810;9.204;2023-03-01T01:56:22;1.00;;;1.00;;
13764;SDS011;6953;48.810;9.204;2023-03-01T01:58:51;1.00;;;1.00;;
13764;SDS011;6953;48.810;9.204;2023-03-01T02:01:17;1.00;;;1.00;;
13764;SDS011;6953;48.810;9.204;2023-03-01T02:03:43;0.90;;;0.90;;
13764;SDS011;6953;48.810;9.204;2023-03-01T02:06:12;1.00;;;1.00;;
13764;SDS011;6953;48.810;9.204;2023-03-01T02:08:47;1.00;;;1.00;;
13764;SDS011;6953;48.810;9.204;2023-03-01T02:11:15;0.80;;;0.80;;
13764;SDS011;6953;48.810;9.204;2023-03-01T02:13:43;1.00;;;1.00;;
13764;SDS011;6953;48.810;9.204;2023-03-01T02:16:12;0.80;;;0.80;;
13764;SDS011;6953;48.810;9.204;2023-03-01T02:18:40;0.93;;;0.93;;
13764;SDS011;6953;48.810;9.204;2023-03-01T02:23:32;1.00;;;1.00;;
13764;SDS011;6953;48.810;9.204;2023-03-01T02:28:54;0.83;;;0.83;;
13764;SDS011;6953;48.810;9.204;2023-03-01T02:31:20;1.00;;;1.00;;
13764;SDS011;6953;48.810;9.204;2023-03-01T02:34:04;0.90;;;0.90;;
13764;SDS011;6953;48.810;9.204;2023-03-01T02:36:36;1.00;;;1.00;;
13764;SDS011;6953;48.810;9.204;2023-03-01T02:39:05;1.00;;;1.00;;
13764;SDS011;6953;48.810;9.204;2023-03-01T02:41:35;1.10;;;1.10;;
13764;SDS011;6953;48.810;9.204;2023-03-01T02:44:02;0.90;;;0.90;;
13764;SDS011;6953;48.810;9.204;2023-03-01T02:46:28;0.90;;;0.90;;
13764;SDS011;6953;48.810;9.204;2023-03-01T02:48:55;0.90;;;0.90;;
13764;SDS011;6953;48.810;9.204;2023-03-01T02:57:02;0.80;;;0.80;;
13764;SDS011;6953;48.810;9.204;2023-03-01T02:59:29;0.80;;;0.80;;
13764;SDS011;6953;48.810;9.204;2023-03-01T03:01:56;0.90;;;0.90;;
13764;SDS011;6953;48.810;9.204;2023-03-01T03:04:22;0.90;;;0.90;;
13764;SDS011;6953;48.810;9.204;2023-03-01T03:06:48;0.77;;;0.77;;
13764;SDS011;6953;48.810;9.204;2023-03-01T03:09:14;0.80;;;0.80;;
13764;SDS011;6953;48.810;9.204;2023-03-01T03:11:41;1.00;;;1.00;;
13764;SDS011;6953;48.810;9.204;2023-03-01T03:14:08;0.90;;;0.90;;
13764;SDS011;6953;48.810;9.204;2023-03-01T03:16:41;0.80;;;0.80;;
13764;SDS011;6953;48.810;9.204;2023-03-01T03:19:08;0.83;;;0.83;;
13764;SDS011;6953;48.810;9.204;2023-03-01T03:21:33;0.80;;;0.80;;
13764;SDS011;6953;48.810;9.204;2023-03-01T03:23:59;0.73;;;0.73;;
13764;SDS011;6953;48.810;9.204;2023-03-01T03:26:25;0.90;;;0.90;;
13764;SDS011;6953;48.810;9.204;2023-03-01T03:28:50;0.90;;;0.90;;
13764;SDS011;6953;48.810;9.204;2023-03-01T03:31:15;0.93;;;0.93;;
13764;SDS011;6953;48.810;9.204;2023-03-01T03:33:41;0.90;;;0.90;;
13764;SDS011;6953;48.810;9.204;2023-03-01T03:36:06;1.00;;;1.00;;
13764;SDS011;6953;48.810;9.204;2023-03-01T03:38:38;0.70;;;0.70;;
13764;SDS011;6953;48.810;9.204;2023-03-01T03:41:05;0.80;;;0.80;;
13764;SDS011;6953;48.810;9.204;2023-03-01T03:43:33;0.80;;;0.80;;
13764;SDS011;6953;48.810;9.204;2023-03-01T03:45:59;1.00;;;1.00;;
13764;SDS011;6953;48.810;9.204;2023-03-01T03:48:25;0.90;;;0.90;;
13764;SDS011;6953;48.810;9.204;2023-03-01T03:50:54;0.90;;;0.90;;
13764;SDS011;6953;48.810;9.204;2023-03-01T03:53:22;0.90;;;0.90;;
13764;SDS011;6953;48.810;9.204;2023-03-01T03:55:48;0.70;;;0.70;;
13764;SDS011;6953;48.810;9.204;2023-03-01T03:58:16;0.77;;;0.77;;
13764;SDS011;6953;48.810;9.204;2023-03-01T04:00:44;0.70;;;0.70;;
13764;SDS011;6953;48.810;9.204;2023-03-01T04:03:11;0.80;;;0.80;;
13764;SDS011;6953;48.810;9.204;2023-03-01T04:05:39;0.70;;;0.70;;
13764;SDS011;6953;48.810;9.204;2023-03-01T04:08:05;0.90;;;0.90;;
13764;SDS011;6953;48.810;9.204;2023-03-01T04:10:35;0.87;;;0.87;;
13764;SDS011;6953;48.810;9.204;2023-03-01T04:13:03;0.80;;;0.80;;
13764;SDS011;6953;48.810;9.204;2023-03-01T04:15:30;1.00;;;1.00;;
13764;SDS011;6953;48.810;9.204;2023-03-01T04:17:57;0.80;;;0.80;;
13764;SDS011;6953;48.810;9.204;2023-03-01T04:20:24;0.80;;;0.80;;
13764;SDS011;6953;48.810;9.204;2023-03-01T04:22:52;0.90;;;0.90;;
13764;SDS011;6953;48.810;9.204;2023-03-01T04:25:25;0.90;;;0.90;;
13764;SDS011;6953;48.810;9.204;2023-03-01T04:27:50;0.80;;;0.80;;
13764;SDS011;6953;48.810;9.204;2023-03-01T04:30:16;0.90;;;0.90;;
13764;SDS011;6953;48.810;9.204;2023-03-01T04:32:41;0.90;;;0.90;;
13764;SDS011;6953;48.810;9.204;2023-03-01T04:35:07;0.80;;;0.80;;
13764;SDS011;6953;48.810;9.204;2023-03-01T04:37:33;0.80;;;0.80;;
13764;SDS011;6953;48.810;9.204;2023-03-01T04:39:59;0.90;;;0.90;;
13764;SDS011;6953;48.810;9.204;2023-03-01T04:42:25;0.90;;;0.90;;
13764;SDS011;6953;48.810;9.204;2023-03-01T04:44:50;1.00;;;1.00;;
13764;SDS011;6953;48.810;9.204;2023-03-01T04:47:16;0.90;;;0.90;;
13764;SDS011;6953;48.810;9.204;2023-03-01T04:49:42;1.00;;;1.00;;
13764;SDS011;6953;48.810;9.204;2023-03-01T04:52:07;0.90;;;0.90;;
13764;SDS011;6953;48.810;9.204;2023-03-01T04:54:34;0.90;;;0.90;;
13764;SDS011;6953;48.810;9.204;2023-03-01T04:57:01;1.03;;;1.03;;
13764;SDS011;6953;48.810;9.204;2023-03-01T04:59:27;1.00;;;1.00;;
13764;SDS011;6953;48.810;9.204;2023-03-01T05:01:53;1.00;;;1.00;;
13764;SDS011;6953;48.810;9.204;2023-03-01T05:04:25;1.10;;;1.10;;
13764;SDS011;6953;48.810;9.204;2023-03-01T05:06:50;1.00;;;1.00;;
13764;SDS011;6953;48.810;9.204;2023-03-01T05:09:18;1.03;;;1.03;;
13764;SDS011;6953;48.810;9.204;2023-03-01T05:11:43;0.90;;;0.90;;
13764;SDS011;6953;48.810;9.204;2023-03-01T05:14:09;0.93;;;0.93;;
13764;SDS011;6953;48.810;9.204;2023-03-01T05:16:35;1.00;;;1.00;;
13764;SDS011;6953;48.810;9.204;2023-03-01T05:19:02;0.90;;;0.90;;
13764;SDS011;6953;48.810;9.204;2023-03-01T05:21:36;0.90;;;0.90;;
13764;SDS011;6953;48.810;9.204;2023-03-01T05:24:25;1.10;;;1.10;;
13764;SDS011;6953;48.810;9.204;2023-03-01T05:26:50;1.13;;;1.13;;
13764;SDS011;6953;48.810;9.204;2023-03-01T05:29:19;0.93;;;0.93;;
13764;SDS011;6953;48.810;9.204;2023-03-01T05:31:50;0.90;;;0.90;;
13764;SDS011;6953;48.810;9.204;2023-03-01T05:34:23;0.90;;;0.90;;
13764;SDS011;6953;48.810;9.204;2023-03-01T05:36:49;1.00;;;1.00;;
13764;SDS011;6953;48.810;9.204;2023-03-01T05:39:18;1.00;;;1.00;;
13764;SDS011;6953;48.810;9.204;2023-03-01T05:41:47;0.90;;;0.90;;
13764;SDS011;6953;48.810;9.204;2023-03-01T05:44:13;0.90;;;0.90;;
13764;SDS011;6953;48.810;9.204;2023-03-01T05:46:39;1.00;;;1.00;;
13764;SDS011;6953;48.810;9.204;2023-03-01T05:49:04;0.97;;;0.97;;
13764;SDS011;6953;48.810;9.204;2023-03-01T05:51:30;1.00;;;1.00;;
13764;SDS011;6953;48.810;9.204;2023-03-01T05:53:55;0.93;;;0.93;;
13764;SDS011;6953;48.810;9.204;2023-03-01T05:56:20;1.00;;;1.00;;
13764;SDS011;6953;48.810;9.204;2023-03-01T05:58:47;0.90;;;0.90;;
13764;SDS011;6953;48.810;9.204;2023-03-01T06:01:14;0.90;;;0.90;;
13764;SDS011;6953;48.810;9.204;2023-03-01T06:03:40;1.00;;;1.00;;
13764;SDS011;6953;48.810;9.204;2023-03-01T06:06:05;1.00;;;1.00;;
13764;SDS011;6953;48.810;9.204;2023-03-01T06:08:30;1.00;;;1.00;;
13764;SDS011;6953;48.810;9.204;2023-03-01T06:10:55;1.00;;;1.00;;
13764;SDS011;6953;48.810;9.204;2023-03-01T06:13:21;1.10;;;1.10;;
13764;SDS011;6953;48.810;9.204;2023-03-01T06:15:48;1.00;;;1.00;;
13764;SDS011;6953;48.810;9.204;2023-03-01T06:18:13;1.20;;;1.20;;
13764;SDS011;6953;48.810;9.204;2023-03-01T06:20:39;1.00;;;1.00;;
13764;SDS011;6953;48.810;9.204;2023-03-01T06:23:04;0.90;;;0.90;;
13764;SDS011;6953;48.810;9.204;2023-03-01T06:25:29;0.93;;;0.93;;
13764;SDS011;6953;48.810;9.204;2023-03-01T06:27:55;0.90;;;0.90;;
13764;SDS011;6953;48.810;9.204;2023-03-01T06:30:21;0.90;;;0.90;;
13764;SDS011;6953;48.810;9.204;2023-03-01T06:32:47;1.10;;;1.10;;
13764;SDS011;6953;48.810;9.204;2023-03-01T06:35:14;1.00;;;1.00;;
13764;SDS011;6953;48.810;9.204;2023-03-01T06:37:43;1.00;;;1.00;;
13764;SDS011;6953;48.810;9.204;2023-03-01T06:40:09;0.90;;;0.90;;
13764;SDS011;6953;48.810;9.204;2023-03-01T06:42:36;1.00;;;1.00;;
13764;SDS011;6953;48.810;9.204;2023-03-01T06:45:03;1.00;;;1.00;;
13764;SDS011;6953;48.810;9.204;2023-03-01T06:47:30;1.13;;;1.13;;
13764;SDS011;6953;48.810;9.204;2023-03-01T06:49:56;0.90;;;0.90;;
13764;SDS011;6953;48.810;9.204;2023-03-01T06:52:21;0.90;;;0.90;;
13764;SDS011;6953;48.810;9.204;2023-03-01T06:54:46;1.00;;;1.00;;
13764;SDS011;6953;48.810;9.204;2023-03-01T06:57:12;1.00;;;1.00;;
13764;SDS011;6953;48.810;9.204;2023-03-01T06:59:37;0.90;;;0.90;;
13764;SDS011;6953;48.810;9.204;2023-03-01T07:02:02;1.10;;;1.10;;
13764;SDS011;6953;48.810;9.204;2023-03-01T07:04:27;1.07;;;1.07;;
13764;SDS011;6953;48.810;9.204;2023-03-01T07:06:56;1.10;;;1.10;;
13764;SDS011;6953;48.810;9.204;2023-03-01T07:09:24;1.00;;;1.00;;
13764;SDS011;6953;48.810;9.204;2023-03-01T07:11:50;0.93;;;0.93;;
13764;SDS011;6953;48.810;9.204;2023-03-01T07:14:15;1.10;;;1.10;;
13764;SDS011;6953;48.810;9.204;2023-03-01T07:16:41;0.90;;;0.90;;
13764;SDS011;6953;48.810;9.204;2023-03-01T07:19:06;1.00;;;1.00;;
13764;SDS011;6953;48.810;9.204;2023-03-01T07:21:31;0.90;;;0.90;;
13764;SDS011;6953;48.810;9.204;2023-03-01T07:23:57;1.00;;;1.00;;
13764;SDS011;6953;48.810;9.204;2023-03-01T07:26:22;0.90;;;0.90;;
13764;SDS011;6953;48.810;9.204;2023-03-01T07:28:48;1.00;;;1.00;;
13764;SDS011;6953;48.810;9.204;2023-03-01T07:31:13;0.90;;;0.90;;
13764;SDS011;6953;48.810;9.204;2023-03-01T07:33:38;0.97;;;0.97;;
13764;SDS011;6953;48.810;9.204;2023-03-01T07:36:04;0.97;;;0.97;;
13764;SDS011;6953;48.810;9.204;2023-03-01T07:38:30;1.00;;;1.00;;
13764;SDS011;6953;48.810;9.204;2023-03-01T07:41:02;0.97;;;0.97;;
13764;SDS011;6953;48.810;9.204;2023-03-01T07:43:29;1.00;;;1.00;;
13764;SDS011;6953;48.810;9.204;2023-03-01T07:45:57;0.90;;;0.90;;
13764;SDS011;6953;48.810;9.204;2023-03-01T07:48:24;0.90;;;0.90;;
13764;SDS011;6953;48.810;9.204;2023-03-01T07:50:50;0.90;;;0.90;;
13764;SDS011;6953;48.810;9.204;2023-03-01T07:53:15;1.00;;;1.00;;
13764;SDS011;6953;48.810;9.204;2023-03-01T07:55:40;0.97;;;0.97;;
13764;SDS011;6953;48.810;9.204;2023-03-01T07:58:06;0.90;;;0.90;;
13764;SDS011;6953;48.810;9.204;2023-03-01T08:00:31;0.93;;;0.93;;
13764;SDS011;6953;48.810;9.204;2023-03-01T08:02:58;0.80;;;0.80;;
13764;SDS011;6953;48.810;9.204;2023-03-01T08:05:24;0.87;;;0.87;;
13764;SDS011;6953;48.810;9.204;2023-03-01T08:07:50;0.87;;;0.87;;
13764;SDS011;6953;48.810;9.204;2023-03-01T08:10:15;0.90;;;0.90;;
13764;SDS011;6953;48.810;9.204;2023-03-01T08:12:41;0.90;;;0.90;;
13764;SDS011;6953;48.810;9.204;2023-03-01T08:15:06;0.90;;;0.90;;
13764;SDS011;6953;48.810;9.204;2023-03-01T08:17:32;0.77;;;0.77;;
13764;SDS011;6953;48.810;9.204;2023-03-01T08:19:58;0.80;;;0.80;;
13764;SDS011;6953;48.810;9.204;2023-03-01T08:22:23;0.60;;;0.60;;
13764;SDS011;6953;48.810;9.204;2023-03-01T08:24:48;0.50;;;0.50;;
13764;SDS011;6953;48.810;9.204;2023-03-01T08:27:14;0.30;;;0.30;;
13764;SDS011;6953;48.810;9.204;2023-03-01T08:29:41;0.40;;;0.40;;
13764;SDS011;6953;48.810;9.204;2023-03-01T08:32:06;0.50;;;0.50;;
13764;SDS011;6953;48.810;9.204;2023-03-01T08:34:31;0.40;;;0.40;;
13764;SDS011;6953;48.810;9.204;2023-03-01T08:36:57;0.20;;;0.20;;
13764;SDS011;6953;48.810;9.204;2023-03-01T08:39:23;0.30;;;0.30;;
13764;SDS011;6953;48.810;9.204;2023-03-01T08:41:48;0.32;;;0.32;;
13764;SDS011;6953;48.810;9.204;2023-03-01T08:44:14;0.30;;;0.30;;
13764;SDS011;6953;48.810;9.204;2023-03-01T08:46:41;0.30;;;0.30;;
13764;SDS011;6953;48.810;9.204;2023-03-01T08:49:08;0.30;;;0.30;;
13764;SDS011;6953;48.810;9.204;2023-03-01T08:51:36;0.30;;;0.30;;
13764;SDS011;6953;48.810;9.204;2023-03-01T08:54:12;0.30;;;0.30;;
13764;SDS011;6953;48.810;9.204;2023-03-01T08:56:40;0.40;;;0.40;;
13764;SDS011;6953;48.810;9.204;2023-03-01T08:59:06;0.28;;;0.28;;
13764;SDS011;6953;48.810;9.204;2023-03-01T09:01:32;0.30;;;0.30;;
13764;SDS011;6953;48.810;9.204;2023-03-01T09:03:57;0.30;;;0.30;;
13764;SDS011;6953;48.810;9.204;2023-03-01T09:06:22;0.40;;;0.40;;
13764;SDS011;6953;48.810;9.204;2023-03-01T09:08:48;0.30;;;0.30;;
13764;SDS011;6953;48.810;9.204;2023-03-01T09:11:16;0.20;;;0.20;;
13764;SDS011;6953;48.810;9.204;2023-03-01T09:13:43;0.30;;;0.30;;
13764;SDS011;6953;48.810;9.204;2023-03-01T09:16:10;0.30;;;0.30;;
13764;SDS011;6953;48.810;9.204;2023-03-01T09:18:37;0.22;;;0.22;;
13764;SDS011;6953;48.810;9.204;2023-03-01T09:21:03;0.30;;;0.30;;
13764;SDS011;6953;48.810;9.204;2023-03-01T09:23:48;0.30;;;0.30;;
13764;SDS011;6953;48.810;9.204;2023-03-01T09:26:20;0.30;;;0.30;;
13764;SDS011;6953;48.810;9.204;2023-03-01T09:28:48;0.20;;;0.20;;
13764;SDS011;6953;48.810;9.204;2023-03-01T09:31:15;0.20;;;0.20;;
13764;SDS011;6953;48.810;9.204;2023-03-01T09:33:42;0.30;;;0.30;;
13764;SDS011;6953;48.810;9.204;2023-03-01T09:36:10;0.20;;;0.20;;
13764;SDS011;6953;48.810;9.204;2023-03-01T09:38:37;0.20;;;0.20;;
13764;SDS011;6953;48.810;9.204;2023-03-01T09:41:08;0.20;;;0.20;;
13764;SDS011;6953;48.810;9.204;2023-03-01T09:46:55;0.20;;;0.20;;
13764;SDS011;6953;48.810;9.204;2023-03-01T09:49:23;0.20;;;0.20;;
13764;SDS011;6953;48.810;9.204;2023-03-01T09:51:55;0.20;;;0.20;;
13764;SDS011;6953;48.810;9.204;2023-03-01T09:54:23;0.20;;;0.20;;
13764;SDS011;6953;48.810;9.204;2023-03-01T09:59:49;0.15;;;0.15;;
13764;SDS011;6953;48.810;9.204;2023-03-01T10:02:43;0.20;;;0.20;;
13764;SDS011;6953;48.810;9.204;2023-03-01T10:05:13;0.20;;;0.20;;
13764;SDS011;6953;48.810;9.204;2023-03-01T10:07:48;0.30;;;0.30;;
13764;SDS011;6953;48.810;9.204;2023-03-01T10:10:36;0.20;;;0.20;;
13764;SDS011;6953;48.810;9.204;2023-03-01T10:13:10;0.10;;;0.10;;
13764;SDS011;6953;48.810;9.204;2023-03-01T10:16:14;0.20;;;0.20;;
13764;SDS011;6953;48.810;9.204;2023-03-01T10:18:43;0.10;;;0.10;;
13764;SDS011;6953;48.810;9.204;2023-03-01T10:21:15;0.10;;;0.10;;
13764;SDS011;6953;48.810;9.204;2023-03-01T10:23:43;0.20;;;0.20;;
13764;SDS011;6953;48.810;9.204;2023-03-01T10:28:54;0.10;;;0.10;;
13764;SDS011;6953;48.810;9.204;2023-03-01T10:31:31;0.20;;;0.20;;
13764;SDS011;6953;48.810;9.204;2023-03-01T10:34:07;0.20;;;0.20;;
13764;SDS011;6953;48.810;9.204;2023-03-01T10:36:38;0.10;;;0.10;;
13764;SDS011;6953;48.810;9.204;2023-03-01T10:39:11;0.20;;;0.20;;
13764;SDS011;6953;48.810;9.204;2023-03-01T10:41:44;0.10;;;0.10;;
13764;SDS011;6953;48.810;9.204;2023-03-01T10:44:34;0.20;;;0.20;;
13764;SDS011;6953;48.810;9.204;2023-03-01T10:47:02;0.17;;;0.17;;
13764;SDS011;6953;48.810;9.204;2023-03-01T10:49:29;0.20;;;0.20;;
13764;SDS011;6953;48.810;9.204;2023-03-01T10:51:54;0.10;;;0.10;;
13764;SDS011;6953;48.810;9.204;2023-03-01T10:54:30;0.17;;;0.17;;
13764;SDS011;6953;48.810;9.204;2023-03-01T10:56:58;0.10;;;0.10;;
13764;SDS011;6953;48.810;9.204;2023-03-01T10:59:30;0.20;;;0.20;;
13764;SDS011;6953;48.810;9.204;2023-03-01T11:04:34;0.10;;;0.10;;
13764;SDS011;6953;48.810;9.204;2023-03-01T11:07:00;0.20;;;0.20;;
13764;SDS011;6953;48.810;9.204;2023-03-01T11:09:30;0.10;;;0.10;;
13764;SDS011;6953;48.810;9.204;2023-03-01T11:12:02;0.10;;;0.10;;
13764;SDS011;6953;48.810;9.204;2023-03-01T11:14:36;0.10;;;0.10;;
13764;SDS011;6953;48.810;9.204;2023-03-01T11:17:11;0.10;;;0.10;;
13764;SDS011;6953;48.810;9.204;2023-03-01T11:19:41;0.10;;;0.10;;
13764;SDS011;6953;48.810;9.204;2023-03-01T11:22:27;0.10;;;0.10;;
13764;SDS011;6953;48.810;9.204;2023-03-01T11:24:53;0.17;;;0.17;;
13764;SDS011;6953;48.810;9.204;2023-03-01T11:27:24;0.10;;;0.10;;
13764;SDS011;6953;48.810;9.204;2023-03-01T11:30:03;0.13;;;0.13;;
13764;SDS011;6953;48.810;9.204;2023-03-01T11:32:35;0.10;;;0.10;;
13764;SDS011;6953;48.810;9.204;2023-03-01T11:35:20;0.20;;;0.20;;
13764;SDS011;6953;48.810;9.204;2023-03-01T11:40:40;0.10;;;0.10;;
13764;SDS011;6953;48.810;9.204;2023-03-01T11:48:24;0.10;;;0.10;;
13764;SDS011;6953;48.810;9.204;2023-03-01T11:50:52;0.15;;;0.15;;
13764;SDS011;6953;48.810;9.204;2023-03-01T11:53:23;0.10;;;0.10;;
13764;SDS011;6953;48.810;9.204;2023-03-01T11:58:50;0.10;;;0.10;;
13764;SDS011;6953;48.810;9.204;2023-03-01T12:01:32;0.10;;;0.10;;
13764;SDS011;6953;48.810;9.204;2023-03-01T12:12:38;0.10;;;0.10;;
13764;SDS011;6953;48.810;9.204;2023-03-01T12:15:25;0.10;;;0.10;;
13764;SDS011;6953;48.810;9.204;2023-03-01T12:26:44;0.10;;;0.10;;
13764;SDS011;6953;48.810;9.204;2023-03-01T12:35:24;0.20;;;0.20;;
13764;SDS011;6953;48.810;9.204;2023-03-01T12:48:33;0.20;;;0.20;;
13764;SDS011;6953;48.810;9.204;2023-03-01T12:51:10;0.20;;;0.20;;
13764;SDS011;6953;48.810;9.204;2023-03-01T12:53:40;0.13;;;0.13;;
13764;SDS011;6953;48.810;9.204;2023-03-01T12:56:12;0.20;;;0.20;;
13764;SDS011;6953;48.810;9.204;2023-03-01T13:01:45;0.20;;;0.20;;
13764;SDS011;6953;48.810;9.204;2023-03-01T13:13:02;0.20;;;0.20;;
13764;SDS011;6953;48.810;9.204;2023-03-01T13:15:29;0.20;;;0.20;;
13764;SDS011;6953;48.810;9.204;2023-03-01T13:18:00;0.20;;;0.20;;
13764;SDS011;6953;48.810;9.204;2023-03-01T13:20:44;0.20;;;0.20;;
13764;SDS011;6953;48.810;9.204;2023-03-01T13:26:04;0.22;;;0.22;;
13764;SDS011;6953;48.810;9.204;2023-03-01T13:33:59;0.30;;;0.30;;
13764;SDS011;6953;48.810;9.204;2023-03-01T13:44:21;0.40;;;0.40;;
13764;SDS011;6953;48.810;9.204;2023-03-01T13:49:29;0.47;;;0.47;;
13764;SDS011;6953;48.810;9.204;2023-03-01T13:52:05;0.40;;;0.40;;
13764;SDS011;6953;48.810;9.204;2023-03-01T13:54:32;0.38;;;0.38;;
13764;SDS011;6953;48.810;9.204;2023-03-01T13:56:58;0.40;;;0.40;;
13764;SDS011;6953;48.810;9.204;2023-03-01T13:59:25;0.40;;;0.40;;
13764;SDS011;6953;48.810;9.204;2023-03-01T14:01:55;0.50;;;0.50;;
13764;SDS011;6953;48.810;9.204;2023-03-01T14:04:24;0.55;;;0.55;;
13764;SDS011;6953;48.810;9.204;2023-03-01T14:07:08;0.50;;;0.50;;
13764;SDS011;6953;48.810;9.204;2023-03-01T14:09:44;0.50;;;0.50;;
13764;SDS011;6953;48.810;9.204;2023-03-01T14:17:33;0.45;;;0.45;;
13764;SDS011;6953;48.810;9.204;2023-03-01T14:20:29;0.50;;;0.50;;
13764;SDS011;6953;48.810;9.204;2023-03-01T14:22:56;0.40;;;0.40;;
13764;SDS011;6953;48.810;9.204;2023-03-01T14:28:42;0.50;;;0.50;;
13764;SDS011;6953;48.810;9.204;2023-03-01T14:30:52;0.40;;;0.40;;
13764;SDS011;6953;48.810;9.204;2023-03-01T14:33:29;0.40;;;0.40;;
13764;SDS011;6953;48.810;9.204;2023-03-01T14:35:59;0.50;;;0.50;;
13764;SDS011;6953;48.810;9.204;2023-03-01T14:43:43;0.45;;;0.45;;
13764;SDS011;6953;48.810;9.204;2023-03-01T14:46:45;0.50;;;0.50;;
13764;SDS011;6953;48.810;9.204;2023-03-01T14:49:06;0.57;;;0.57;;
13764;SDS011;6953;48.810;9.204;2023-03-01T14:51:38;0.50;;;0.50;;
13764;SDS011;6953;48.810;9.204;2023-03-01T14:56:52;0.60;;;0.60;;
13764;SDS011;6953;48.810;9.204;2023-03-01T14:59:24;0.60;;;0.60;;
13764;SDS011;6953;48.810;9.204;2023-03-01T15:01:53;0.50;;;0.50;;
13764;SDS011;6953;48.810;9.204;2023-03-01T15:04:21;0.43;;;0.43;;
13764;SDS011;6953;48.810;9.204;2023-03-01T15:06:50;0.60;;;0.60;;
13764;SDS011;6953;48.810;9.204;2023-03-01T15:09:16;0.60;;;0.60;;
13764;SDS011;6953;48.810;9.204;2023-03-01T15:11:43;0.57;;;0.57;;
13764;SDS011;6953;48.810;9.204;2023-03-01T15:14:28;0.50;;;0.50;;
13764;SDS011;6953;48.810;9.204;2023-03-01T15:17:05;0.80;;;0.80;;
13764;SDS011;6953;48.810;9.204;2023-03-01T15:19:45;0.70;;;0.70;;
13764;SDS011;6953;48.810;9.204;2023-03-01T15:22:14;0.60;;;0.60;;
13764;SDS011;6953;48.810;9.204;2023-03-01T15:24:41;0.70;;;0.70;;
13764;SDS011;6953;48.810;9.204;2023-03-01T15:27:18;0.60;;;0.60;;
13764;SDS011;6953;48.810;9.204;2023-03-01T15:29:52;0.60;;;0.60;;
13764;SDS011;6953;48.810;9.204;2023-03-01T15:32:25;0.70;;;0.70;;
13764;SDS011;6953;48.810;9.204;2023-03-01T15:34:50;0.75;;;0.75;;
13764;SDS011;6953;48.810;9.204;2023-03-01T15:39:59;0.90;;;0.90;;
13764;SDS011;6953;48.810;9.204;2023-03-01T15:45:09;0.88;;;0.88;;
13764;SDS011;6953;48.810;9.204;2023-03-01T15:47:48;0.80;;;0.80;;
13764;SDS011;6953;48.810;9.204;2023-03-01T15:50:23;0.80;;;0.80;;
13764;SDS011;6953;48.810;9.204;2023-03-01T15:52:54;0.80;;;0.80;;
13764;SDS011;6953;48.810;9.204;2023-03-01T15:55:22;0.90;;;0.90;;
13764;SDS011;6953;48.810;9.204;2023-03-01T15:58:01;0.90;;;0.90;;
13764;SDS011;6953;48.810;9.204;2023-03-01T16:00:28;0.85;;;0.85;;
13764;SDS011;6953;48.810;9.204;2023-03-01T16:02:54;1.00;;;1.00;;
13764;SDS011;6953;48.810;9.204;2023-03-01T16:05:21;0.82;;;0.82;;
13764;SDS011;6953;48.810;9.204;2023-03-01T16:07:52;1.00;;;1.00;;
13764;SDS011;6953;48.810;9.204;2023-03-01T16:10:18;0.80;;;0.80;;
13764;SDS011;6953;48.810;9.204;2023-03-01T16:12:44;0.80;;;0.80;;
13764;SDS011;6953;48.810;9.204;2023-03-01T16:15:16;0.80;;;0.80;;
13764;SDS011;6953;48.810;9.204;2023-03-01T16:17:45;0.90;;;0.90;;
13764;SDS011;6953;48.810;9.204;2023-03-01T16:20:10;0.90;;;0.90;;
13764;SDS011;6953;48.810;9.204;2023-03-01T16:22:36;1.00;;;1.00;;
13764;SDS011;6953;48.810;9.204;2023-03-01T16:25:02;1.00;;;1.00;;
13764;SDS011;6953;48.810;9.204;2023-03-01T16:27:27;0.80;;;0.80;;
13764;SDS011;6953;48.810;9.204;2023-03-01T16:29:52;0.70;;;0.70;;
13764;SDS011;6953;48.810;9.204;2023-03-01T16:32:18;0.82;;;0.82;;
13764;SDS011;6953;48.810;9.204;2023-03-01T16:34:43;0.70;;;0.70;;
13764;SDS011;6953;48.810;9.204;2023-03-01T16:37:09;0.80;;;0.80;;
13764;SDS011;6953;48.810;9.204;2023-03-01T16:39:34;0.70;;;0.70;;
13764;SDS011;6953;48.810;9.204;2023-03-01T16:42:02;0.90;;;0.90;;
13764;SDS011;6953;48.810;9.204;2023-03-01T16:44:28;0.90;;;0.90;;
13764;SDS011;6953;48.810;9.204;2023-03-01T16:46:53;0.80;;;0.80;;
13764;SDS011;6953;48.810;9.204;2023-03-01T16:49:18;1.00;;;1.00;;
13764;SDS011;6953;48.810;9.204;2023-03-01T16:51:44;0.80;;;0.80;;
13764;SDS011;6953;48.810;9.204;2023-03-01T16:54:09;0.90;;;0.90;;
13764;SDS011;6953;48.810;9.204;2023-03-01T16:56:35;0.80;;;0.80;;
13764;SDS011;6953;48.810;9.204;2023-03-01T16:59:03;0.70;;;0.70;;
13764;SDS011;6953;48.810;9.204;2023-03-01T17:01:28;0.60;;;0.60;;
13764;SDS011;6953;48.810;9.204;2023-03-01T17:04:02;0.73;;;0.73;;
13764;SDS011;6953;48.810;9.204;2023-03-01T17:06:28;0.50;;;0.50;;
13764;SDS011;6953;48.810;9.204;2023-03-01T17:08:53;0.60;;;0.60;;